Detall de PIREP

Printer-friendly versionPDF version

[2015/04/15 16:00:00]
Flight IATA:CT3235
Pilot Number:016
Company ICAO:CAT
Aircraft Type:B763/F
PAX:177
Departing Airport: LFPG
Destination Airport: LEPA
Alternate Airport:LEBL
Online: VATSIM
Route:ERIXU UN860 ETAMO UN855 PPG UP84 LORES
Flight Level:F330
No Slew and time accel
No pause
Crash detect
Detect pilot in Cockpit between each 30 and 45 minutes
16:00 Zero fuel Weight: 254140 Lbs, Fuel Weight: 34753 Lbs
16:00 VATSIM:LFPG 152230Z 05004KT CAVOK 16/05 Q1015 NOSIG
16:00 VATSIM:LEPA 152230Z 00000KT 9000 FEW040 17/13 Q1018 NOSIG
16:00 Parking Brakes off
16:07 Take-off
16:07 Take off Weight: 287355 Lbs
16:07 Wind: 038º @ 006 Knots Heading: 084º
16:07 POS N48º 59´ 48´´ E002º 34´ 27´´
16:07 Gear Up: 157 Knots
16:07 Flaps:2 at 158 Knots
16:08 Flaps:1 at 211 Knots
16:09 Flaps:0 at 244 Knots
16:16 TOC
16:16 Fuel Weight: 28031 Lb
16:22 Wind:035º@016 Knots Heading: 189º Ground Speed: 480 Knots Altitude 33054 ft
16:37 Wind:141º@015 Knots Heading: 178º Ground Speed: 448 Knots Altitude 33067 ft
16:52 Wind:113º@060 Knots Heading: 172º Ground Speed: 437 Knots Altitude 33074 ft
17:07 Wind:093º@006 Knots Heading: 180º Ground Speed: 465 Knots Altitude 33136 ft
17:08 TOD
17:08 Fuel Weight: 19180 Lb
17:21 Flaps:1 at 249 Knots
17:22 Wind:117º@004 Knots Heading: 150º Ground Speed: 269 Knots Altitude 8677 ft
17:25 Flaps:2 at 200 Knots
17:25 Flaps:3 at 194 Knots
17:27 Flaps:4 at 152 Knots
17:27 Gear Down: 151 Knots
17:28 Flaps:5 at 140 Knots
17:28 Flaps:6 at 137 Knots
17:33 TouchDown:Rate -134 ft/min Speed: 137 Knots
17:34 VATSIM:LEPA 160030Z 00000KT 9999 FEW030 16/15 Q1018 NOSIG
17:34 Land
17:34 Wind:115º@000 Knots
17:34 Heading: 238º
17:34 Flight Duration: 01:27
17:34 Landing Weight: 270228 Lbs
17:34 POS N39º 32´ 46´´ E002º 44´33´´
17:35 Parking brakes on
17:35 Block to Block Duration: 01:35
17:35 Final Fuel: 15793 Lbls
17:35 Spent Fuel: 18959 Lbls
17:35 Flight Length: 575 NM
17:35 TOD Land Length: 117 NM

Exportar CSV

Powered by Drupal - Modified by Danger4k